createdAt,value
2019-05-25T00:01:12.626Z,13.80
2019-05-25T00:03:41.282Z,13.35
2019-05-25T00:06:09.922Z,12.63
2019-05-25T00:08:38.628Z,13.32
2019-05-25T00:11:07.436Z,12.88
2019-05-25T00:13:36.096Z,12.30
2019-05-25T00:16:04.829Z,14.40
2019-05-25T00:18:33.492Z,13.53
2019-05-25T00:21:02.164Z,13.65
2019-05-25T00:23:30.887Z,14.75
2019-05-25T00:25:59.546Z,12.73
2019-05-25T00:28:28.199Z,13.48
2019-05-25T00:30:56.914Z,12.93
2019-05-25T00:33:25.487Z,15.75
2019-05-25T00:35:54.152Z,13.25
2019-05-25T00:38:22.942Z,13.58
2019-05-25T00:40:51.601Z,13.32
2019-05-25T00:43:20.259Z,13.55
2019-05-25T00:45:48.986Z,15.98
2019-05-25T00:48:17.649Z,15.50
2019-05-25T00:50:46.311Z,13.05
2019-05-25T00:53:15.047Z,14.60
2019-05-25T00:55:43.778Z,14.68
2019-05-25T00:58:12.422Z,14.28
2019-05-25T01:00:41.724Z,14.38
2019-05-25T01:03:10.445Z,14.43
2019-05-25T01:05:40.536Z,13.55
2019-05-25T01:08:09.272Z,14.40
2019-05-25T01:10:37.945Z,14.63
2019-05-25T01:13:06.593Z,16.23
2019-05-25T01:15:35.306Z,13.85
2019-05-25T01:18:03.970Z,14.47
2019-05-25T01:20:32.616Z,14.65
2019-05-25T01:23:01.378Z,16.37
2019-05-25T01:25:30.036Z,15.98
2019-05-25T01:27:58.845Z,15.35
2019-05-25T01:30:27.559Z,14.78
2019-05-25T01:32:56.212Z,17.10
2019-05-25T01:35:24.852Z,15.45
2019-05-25T01:37:53.511Z,16.85
2019-05-25T01:40:22.352Z,16.07
2019-05-25T01:42:51.008Z,15.20
2019-05-25T01:45:19.779Z,15.05
2019-05-25T01:47:48.450Z,15.88
2019-05-25T01:50:17.153Z,16.93
2019-05-25T01:52:46.021Z,15.60
2019-05-25T01:55:14.879Z,13.72
2019-05-25T01:57:43.497Z,14.40
2019-05-25T02:00:12.957Z,14.65
2019-05-25T02:02:41.599Z,13.98
2019-05-25T02:05:10.380Z,13.50
2019-05-25T02:07:39.032Z,15.30
2019-05-25T02:10:08.715Z,14.90
2019-05-25T02:12:37.595Z,14.38
2019-05-25T02:15:10.643Z,14.78
2019-05-25T02:17:39.317Z,12.55
2019-05-25T02:20:09.259Z,15.20
2019-05-25T02:22:38.075Z,13.65
2019-05-25T02:25:17.557Z,13.20
2019-05-25T02:27:39.658Z,13.83
2019-05-25T02:30:10.551Z,12.65
2019-05-25T02:32:39.544Z,14.60
2019-05-25T02:35:08.633Z,13.75
2019-05-25T02:37:37.592Z,13.40
2019-05-25T02:40:07.135Z,17.07
2019-05-25T02:42:36.337Z,14.98
2019-05-25T02:45:07.492Z,15.15
2019-05-25T02:47:36.070Z,14.98
2019-05-25T02:50:07.115Z,13.68
2019-05-25T02:52:35.965Z,13.00
2019-05-25T02:55:06.539Z,12.35
2019-05-25T02:57:35.201Z,12.53
2019-05-25T03:00:05.349Z,15.32
2019-05-25T03:02:34.005Z,12.55
2019-05-25T03:05:02.778Z,12.23
2019-05-25T03:07:31.656Z,11.85
2019-05-25T03:10:00.789Z,11.30
2019-05-25T03:12:30.221Z,12.68
2019-05-25T03:14:58.870Z,13.58
2019-05-25T03:17:27.542Z,12.23
2019-05-25T03:19:56.188Z,11.75
2019-05-25T03:22:24.910Z,15.43
2019-05-25T03:24:53.562Z,20.30
2019-05-25T03:27:22.210Z,19.37
2019-05-25T03:29:50.874Z,20.37
2019-05-25T03:32:19.969Z,19.73
2019-05-25T03:34:48.561Z,22.32
2019-05-25T03:37:18.715Z,19.20
2019-05-25T03:39:47.409Z,20.60
2019-05-25T03:42:16.081Z,19.17
2019-05-25T03:44:44.924Z,20.43
2019-05-25T03:47:13.622Z,22.80
2019-05-25T03:49:42.277Z,21.12
2019-05-25T03:52:10.866Z,22.30
2019-05-25T03:54:39.578Z,26.00
2019-05-25T03:57:08.273Z,19.02
2019-05-25T03:59:36.921Z,21.48
2019-05-25T04:02:06.041Z,19.05
2019-05-25T04:04:34.706Z,20.62
2019-05-25T04:07:03.364Z,20.90
2019-05-25T04:09:32.077Z,18.55
2019-05-25T04:12:00.744Z,17.57
2019-05-25T04:14:29.383Z,15.58
2019-05-25T04:16:58.155Z,12.25
2019-05-25T04:19:26.815Z,14.53
2019-05-25T04:21:55.474Z,11.97
2019-05-25T04:24:24.181Z,14.18
2019-05-25T04:26:52.831Z,11.97
2019-05-25T04:29:21.494Z,12.80
2019-05-25T04:31:50.220Z,11.80
2019-05-25T04:34:18.872Z,11.45
2019-05-25T04:36:47.524Z,15.00
2019-05-25T04:39:16.217Z,12.65
2019-05-25T04:41:44.896Z,13.10
2019-05-25T04:44:13.551Z,16.42
2019-05-25T04:46:42.279Z,17.65
2019-05-25T04:49:10.923Z,21.37
2019-05-25T04:51:39.509Z,25.32
2019-05-25T04:54:08.318Z,23.18
2019-05-25T04:56:39.927Z,23.83
2019-05-25T04:59:07.355Z,22.20
2019-05-25T05:01:36.271Z,20.95
2019-05-25T05:04:04.953Z,18.75
2019-05-25T05:06:33.606Z,20.00
2019-05-25T05:09:02.337Z,21.40
2019-05-25T05:11:30.983Z,20.45
2019-05-25T05:13:59.651Z,17.98
2019-05-25T05:16:28.358Z,23.87
2019-05-25T05:18:57.046Z,18.60
2019-05-25T05:21:25.689Z,21.10
2019-05-25T05:23:54.399Z,22.02
2019-05-25T05:26:23.055Z,16.50
2019-05-25T05:28:52.325Z,18.17
2019-05-25T05:31:23.742Z,20.90
2019-05-25T05:33:51.403Z,18.05
2019-05-25T05:36:21.592Z,20.40
2019-05-25T05:38:51.211Z,18.12
2019-05-25T05:41:21.071Z,18.37
2019-05-25T05:43:50.714Z,17.52
2019-05-25T05:46:20.887Z,19.25
2019-05-25T05:48:51.810Z,18.27
2019-05-25T05:51:25.400Z,16.25
2019-05-25T05:53:55.440Z,17.23
2019-05-25T05:56:24.088Z,18.23
2019-05-25T05:58:52.713Z,15.25
2019-05-25T06:01:21.482Z,15.85
2019-05-25T06:03:51.639Z,20.12
2019-05-25T06:06:20.556Z,16.40
2019-05-25T06:08:49.220Z,16.48
2019-05-25T06:11:17.971Z,19.65
2019-05-25T06:13:46.675Z,15.95
2019-05-25T06:16:15.408Z,14.68
2019-05-25T06:18:44.077Z,15.00
2019-05-25T06:21:12.965Z,15.72
2019-05-25T06:23:41.649Z,15.58
2019-05-25T06:26:10.317Z,16.05
2019-05-25T06:28:39.218Z,16.87
2019-05-25T06:31:07.927Z,15.68
2019-05-25T06:33:36.665Z,15.10
2019-05-25T06:36:05.370Z,16.05
2019-05-25T06:38:34.017Z,17.55
2019-05-25T06:41:02.963Z,11.70
2019-05-25T06:43:31.674Z,12.13
2019-05-25T06:46:00.403Z,13.80
2019-05-25T06:48:29.274Z,11.75
2019-05-25T06:50:58.052Z,14.28
2019-05-25T06:53:26.729Z,14.63
2019-05-25T06:55:55.470Z,12.35
2019-05-25T06:58:24.170Z,12.55
2019-05-25T07:00:52.853Z,11.97
2019-05-25T07:03:21.535Z,13.78
2019-05-25T07:05:50.368Z,11.48
2019-05-25T07:08:19.030Z,13.95
2019-05-25T07:10:47.804Z,11.12
2019-05-25T07:13:16.478Z,12.07
2019-05-25T07:15:45.247Z,10.18
2019-05-25T07:18:14.006Z,11.70
2019-05-25T07:20:42.837Z,10.85
2019-05-25T07:23:11.465Z,9.58
2019-05-25T07:25:40.128Z,8.38
2019-05-25T07:28:08.861Z,9.55
2019-05-25T07:30:42.458Z,9.23
2019-05-25T07:33:11.342Z,8.23
2019-05-25T07:35:40.128Z,9.20
2019-05-25T07:38:09.040Z,8.65
2019-05-25T07:40:37.825Z,8.90
2019-05-25T07:43:06.655Z,9.40
2019-05-25T07:45:51.807Z,7.97
2019-05-25T07:48:22.091Z,6.30
2019-05-25T07:50:50.744Z,5.95
2019-05-25T07:53:19.413Z,4.58
2019-05-25T07:55:52.082Z,2.85
2019-05-25T07:58:23.027Z,4.70
2019-05-25T08:00:51.650Z,3.30
2019-05-25T08:03:20.268Z,2.92
2019-05-25T08:05:49.090Z,3.15
2019-05-25T08:08:17.810Z,3.55
2019-05-25T08:10:46.573Z,3.42
2019-05-25T08:13:16.254Z,3.70
2019-05-25T08:15:45.003Z,4.60
2019-05-25T08:18:13.647Z,5.05
2019-05-25T08:20:42.297Z,5.47
2019-05-25T08:23:11.020Z,8.18
2019-05-25T08:25:39.713Z,6.00
2019-05-25T08:28:08.392Z,6.80
2019-05-25T08:30:37.106Z,7.80
2019-05-25T08:33:05.822Z,6.80
2019-05-25T08:35:34.554Z,4.97
2019-05-25T08:38:03.176Z,4.50
2019-05-25T08:40:33.324Z,3.08
2019-05-25T08:43:03.542Z,3.30
2019-05-25T08:45:32.205Z,4.65
2019-05-25T08:48:00.816Z,5.00
2019-05-25T08:50:38.127Z,3.60
2019-05-25T08:53:02.370Z,3.27
2019-05-25T08:55:32.521Z,4.03
2019-05-25T08:58:01.173Z,3.08
2019-05-25T09:00:29.929Z,3.50
2019-05-25T09:02:58.699Z,4.08
2019-05-25T09:05:32.993Z,4.12
2019-05-25T09:08:01.660Z,3.72
2019-05-25T09:10:30.367Z,5.42
2019-05-25T09:12:59.029Z,3.67
2019-05-25T09:15:27.686Z,5.08
2019-05-25T09:17:56.508Z,4.25
2019-05-25T09:20:25.153Z,3.80
2019-05-25T09:22:53.818Z,3.08
2019-05-25T09:25:22.525Z,3.52
2019-05-25T09:27:51.180Z,3.17
2019-05-25T09:30:19.993Z,2.55
2019-05-25T09:32:51.412Z,2.70
2019-05-25T09:35:22.372Z,3.20
2019-05-25T09:37:52.479Z,3.45
2019-05-25T09:40:21.287Z,2.60
2019-05-25T09:42:54.866Z,2.80
2019-05-25T09:45:23.554Z,3.75
2019-05-25T09:47:52.298Z,3.25
2019-05-25T09:50:20.984Z,3.58
2019-05-25T09:52:49.662Z,3.05
2019-05-25T09:55:19.894Z,3.75
2019-05-25T09:57:48.457Z,2.62
2019-05-25T10:00:17.592Z,3.33
2019-05-25T10:02:46.824Z,2.95
2019-05-25T10:05:15.794Z,2.98
2019-05-25T10:07:44.460Z,2.87
2019-05-25T10:10:13.412Z,3.33
2019-05-25T10:12:42.050Z,2.67
2019-05-25T10:15:11.403Z,3.05
2019-05-25T10:17:40.055Z,2.72
2019-05-25T10:20:10.427Z,2.65
2019-05-25T10:22:39.116Z,2.65
2019-05-25T10:25:08.389Z,2.50
2019-05-25T10:27:37.010Z,3.90
2019-05-25T10:30:08.006Z,2.72
2019-05-25T10:32:41.768Z,3.50
2019-05-25T10:35:12.500Z,5.22
2019-05-25T10:37:41.182Z,3.65
2019-05-25T10:40:10.247Z,3.50
2019-05-25T10:42:40.526Z,3.83
2019-05-25T10:45:09.874Z,3.70
2019-05-25T10:47:38.741Z,3.25
2019-05-25T10:50:09.221Z,3.17
2019-05-25T10:52:37.892Z,3.83
2019-05-25T10:55:08.181Z,3.65
2019-05-25T10:57:38.501Z,3.50
2019-05-25T11:00:09.464Z,3.05
2019-05-25T11:02:38.119Z,3.20
2019-05-25T11:05:10.369Z,3.35
2019-05-25T11:07:39.112Z,3.30
2019-05-25T11:10:09.075Z,3.22
2019-05-25T11:12:37.798Z,3.10
2019-05-25T11:15:07.352Z,2.95
2019-05-25T11:17:36.582Z,3.05
2019-05-25T11:20:08.059Z,3.35
2019-05-25T11:22:38.186Z,2.87
2019-05-25T11:25:08.131Z,3.30
2019-05-25T11:27:36.855Z,2.35
2019-05-25T11:30:10.368Z,2.90
2019-05-25T11:32:39.126Z,2.75
2019-05-25T11:35:08.161Z,2.62
2019-05-25T11:37:36.880Z,2.92
2019-05-25T11:40:12.154Z,3.75
2019-05-25T11:42:40.753Z,5.92
2019-05-25T11:45:10.239Z,3.33
2019-05-25T11:47:38.905Z,3.83
2019-05-25T11:50:10.989Z,2.35
2019-05-25T11:52:40.145Z,5.15
2019-05-25T11:55:09.426Z,2.70
2019-05-25T11:57:38.075Z,2.83
2019-05-25T12:00:24.198Z,2.75
2019-05-25T12:02:43.031Z,3.05
2019-05-25T12:05:12.095Z,2.52
2019-05-25T12:07:44.474Z,2.83
2019-05-25T12:10:11.884Z,3.30
2019-05-25T12:12:40.669Z,3.98
2019-05-25T12:15:09.791Z,2.42
2019-05-25T12:17:38.430Z,2.40
2019-05-25T12:20:07.744Z,4.97
2019-05-25T12:22:36.506Z,2.52
2019-05-25T12:25:08.846Z,2.95
2019-05-25T12:27:37.448Z,2.60
2019-05-25T12:30:08.486Z,2.50
2019-05-25T12:32:37.152Z,3.70
2019-05-25T12:35:07.595Z,2.25
2019-05-25T12:37:36.314Z,3.00
2019-05-25T12:40:06.985Z,2.58
2019-05-25T12:42:35.665Z,2.40
2019-05-25T12:45:06.074Z,2.02
2019-05-25T12:47:34.800Z,2.27
2019-05-25T12:50:04.719Z,3.22
2019-05-25T12:52:33.272Z,2.62
2019-05-25T12:55:02.937Z,2.20
2019-05-25T12:57:32.694Z,3.58
2019-05-25T13:00:15.036Z,2.75
2019-05-25T13:02:31.653Z,2.52
2019-05-25T13:05:00.381Z,2.55
2019-05-25T13:07:29.097Z,2.05
2019-05-25T13:09:57.824Z,3.83
2019-05-25T13:12:32.791Z,4.55
2019-05-25T13:15:01.511Z,3.47
2019-05-25T13:17:31.865Z,2.60
2019-05-25T13:20:00.514Z,2.60
2019-05-25T13:22:29.222Z,2.75
2019-05-25T13:24:58.026Z,3.90
2019-05-25T13:27:26.769Z,2.30
2019-05-25T13:29:55.486Z,2.47
2019-05-25T13:32:24.272Z,3.35
2019-05-25T13:34:52.927Z,2.45
2019-05-25T13:37:21.640Z,2.47
2019-05-25T13:39:50.418Z,2.10
2019-05-25T13:42:19.162Z,2.40
2019-05-25T13:44:47.881Z,2.02
2019-05-25T13:47:16.707Z,2.47
2019-05-25T13:49:46.605Z,2.50
2019-05-25T13:52:17.022Z,2.22
2019-05-25T13:54:49.004Z,2.60
2019-05-25T13:57:17.670Z,2.30
2019-05-25T13:59:46.332Z,3.30
2019-05-25T14:02:15.023Z,5.28
2019-05-25T14:04:43.741Z,4.28
2019-05-25T14:07:12.601Z,4.65
2019-05-25T14:09:41.251Z,6.47
2019-05-25T14:12:09.906Z,3.52
2019-05-25T14:14:38.653Z,3.62
2019-05-25T14:17:07.448Z,2.00
2019-05-25T14:19:36.058Z,2.60
2019-05-25T14:22:03.639Z,1.72
2019-05-25T14:24:32.385Z,1.75
2019-05-25T14:27:01.044Z,1.75
2019-05-25T14:29:29.724Z,2.00
2019-05-25T14:32:22.688Z,5.10
2019-05-25T14:34:51.411Z,2.00
2019-05-25T14:37:20.001Z,2.50
2019-05-25T14:39:48.744Z,2.60
2019-05-25T14:42:17.469Z,1.90
2019-05-25T14:44:46.131Z,2.55
2019-05-25T14:47:14.838Z,1.92
2019-05-25T14:49:45.026Z,2.52
2019-05-25T14:52:13.697Z,3.05
2019-05-25T14:54:42.314Z,3.30
2019-05-25T14:57:11.059Z,5.42
2019-05-25T14:59:40.086Z,5.10
2019-05-25T15:02:08.787Z,2.58
2019-05-25T15:04:37.507Z,3.00
2019-05-25T15:07:06.175Z,3.75
2019-05-25T15:09:35.067Z,3.20
2019-05-25T15:12:03.784Z,3.40
2019-05-25T15:14:32.444Z,2.15
2019-05-25T15:17:01.414Z,1.70
2019-05-25T15:19:30.079Z,2.15
2019-05-25T15:21:58.789Z,2.10
2019-05-25T15:24:27.644Z,3.05
2019-05-25T15:26:56.363Z,2.55
2019-05-25T15:29:25.082Z,3.75
2019-05-25T15:31:53.962Z,3.98
2019-05-25T15:34:31.361Z,2.17
2019-05-25T15:37:00.027Z,2.58
2019-05-25T15:39:28.759Z,2.60
2019-05-25T15:41:57.421Z,5.20
2019-05-25T15:44:28.906Z,4.25
2019-05-25T15:46:57.621Z,4.12
2019-05-25T15:49:33.262Z,3.02
2019-05-25T15:51:56.668Z,4.42
2019-05-25T15:54:25.441Z,3.27
2019-05-25T15:56:54.142Z,3.40
2019-05-25T15:59:23.805Z,4.22
2019-05-25T16:01:52.658Z,3.80
2019-05-25T16:04:21.366Z,6.15
2019-05-25T16:06:50.133Z,3.55
2019-05-25T16:09:18.760Z,6.25
2019-05-25T16:11:47.704Z,4.12
2019-05-25T16:14:16.388Z,4.55
2019-05-25T16:16:45.042Z,4.47
2019-05-25T16:19:13.915Z,5.90
2019-05-25T16:21:42.602Z,5.30
2019-05-25T16:24:11.249Z,6.12
2019-05-25T16:26:45.892Z,3.92
2019-05-25T16:29:10.329Z,4.35
2019-05-25T16:31:39.059Z,3.65
2019-05-25T16:34:07.717Z,4.00
2019-05-25T16:36:36.364Z,4.33
2019-05-25T16:39:07.179Z,3.27
2019-05-25T16:41:35.844Z,4.12
2019-05-25T16:44:04.546Z,4.60
2019-05-25T16:46:33.265Z,3.65
2019-05-25T16:49:01.924Z,4.65
2019-05-25T16:51:31.026Z,6.03
2019-05-25T16:53:59.674Z,5.80
2019-05-25T16:56:28.333Z,5.67
2019-05-25T16:58:57.018Z,4.72
2019-05-25T17:01:25.800Z,5.03
2019-05-25T17:03:54.461Z,5.97
2019-05-25T17:06:23.143Z,5.67
2019-05-25T17:08:55.890Z,5.80
2019-05-25T17:11:22.304Z,8.15
2019-05-25T17:13:50.998Z,8.53
2019-05-25T17:16:19.642Z,10.30
2019-05-25T17:18:48.158Z,7.55
2019-05-25T17:21:17.101Z,5.65
2019-05-25T17:23:45.816Z,5.28
2019-05-25T17:26:14.629Z,4.15
2019-05-25T17:28:43.327Z,3.92
2019-05-25T17:31:12.137Z,4.85
2019-05-25T17:33:45.818Z,5.22
2019-05-25T17:36:13.164Z,6.22
2019-05-25T17:38:41.707Z,7.62
2019-05-25T17:41:10.368Z,5.67
2019-05-25T17:43:39.124Z,6.37
2019-05-25T17:46:08.774Z,6.03
2019-05-25T17:48:37.437Z,5.83
2019-05-25T17:51:06.202Z,5.40
2019-05-25T17:53:34.940Z,6.42
2019-05-25T17:56:03.629Z,5.55
2019-05-25T17:58:33.977Z,5.85
2019-05-25T18:01:02.815Z,5.08
2019-05-25T18:03:31.392Z,9.88
2019-05-25T18:06:00.083Z,8.30
2019-05-25T18:08:32.656Z,7.70
2019-05-25T18:11:01.374Z,10.08
2019-05-25T18:13:29.970Z,7.35
2019-05-25T18:15:58.632Z,5.67
2019-05-25T18:18:27.342Z,5.35
2019-05-25T18:20:56.063Z,8.73
2019-05-25T18:23:24.720Z,8.05
2019-05-25T18:25:53.338Z,5.53
2019-05-25T18:28:22.058Z,5.33
2019-05-25T18:30:50.707Z,5.67
2019-05-25T18:33:19.439Z,5.72
2019-05-25T18:35:48.186Z,5.72
2019-05-25T18:38:16.884Z,5.50
2019-05-25T18:40:45.665Z,5.33
2019-05-25T18:43:14.384Z,6.22
2019-05-25T18:45:43.149Z,5.12
2019-05-25T18:48:13.270Z,5.10
2019-05-25T18:50:41.974Z,4.47
2019-05-25T18:53:10.699Z,13.55
2019-05-25T18:55:39.465Z,5.83
2019-05-25T18:58:08.140Z,6.83
2019-05-25T19:00:36.799Z,4.78
2019-05-25T19:03:05.653Z,4.35
2019-05-25T19:05:34.355Z,4.87
2019-05-25T19:08:03.022Z,8.80
2019-05-25T19:10:31.762Z,7.12
2019-05-25T19:13:00.499Z,5.83
2019-05-25T19:15:29.254Z,7.83
2019-05-25T19:17:57.796Z,5.05
2019-05-25T19:20:26.450Z,6.05
2019-05-25T19:22:55.251Z,6.45
2019-05-25T19:25:23.966Z,4.92
2019-05-25T19:27:52.621Z,7.22
2019-05-25T19:30:21.412Z,5.67
2019-05-25T19:32:50.128Z,7.37
2019-05-25T19:35:18.881Z,4.33
2019-05-25T19:37:47.574Z,5.45
2019-05-25T19:40:17.894Z,5.58
2019-05-25T19:42:49.829Z,4.62
2019-05-25T19:45:17.339Z,4.92
2019-05-25T19:47:46.037Z,4.58
2019-05-25T19:50:15.366Z,4.17
2019-05-25T19:52:44.121Z,5.28
2019-05-25T19:55:13.041Z,5.00
2019-05-25T19:57:45.083Z,7.90
2019-05-25T20:00:12.549Z,5.30
2019-05-25T20:02:41.343Z,5.53
2019-05-25T20:05:16.988Z,5.35
2019-05-25T20:07:40.780Z,4.28
2019-05-25T20:10:10.859Z,5.95
2019-05-25T20:12:39.422Z,5.35
2019-05-25T20:15:09.505Z,4.72
2019-05-25T20:17:38.212Z,7.05
2019-05-25T20:20:08.031Z,4.97
2019-05-25T20:22:36.718Z,4.28
2019-05-25T20:25:08.642Z,4.83
2019-05-25T20:27:37.256Z,5.55
2019-05-25T20:30:07.783Z,4.30
2019-05-25T20:32:36.592Z,5.50
2019-05-25T20:35:08.365Z,4.75
2019-05-25T20:37:37.065Z,9.55
2019-05-25T20:40:07.819Z,4.65
2019-05-25T20:42:36.881Z,6.10
2019-05-25T20:45:07.756Z,5.65
2019-05-25T20:47:36.404Z,4.62
2019-05-25T20:50:07.533Z,4.40
2019-05-25T20:52:36.343Z,7.67
2019-05-25T20:55:09.146Z,6.33
2019-05-25T20:57:37.752Z,4.78
2019-05-25T21:00:07.609Z,5.20
2019-05-25T21:02:36.314Z,4.87
2019-05-25T21:05:07.168Z,4.37
2019-05-25T21:07:35.793Z,4.37
2019-05-25T21:10:08.628Z,5.33
2019-05-25T21:12:39.682Z,5.55
2019-05-25T21:15:08.984Z,4.47
2019-05-25T21:17:37.704Z,4.92
2019-05-25T21:20:07.751Z,6.78
2019-05-25T21:22:36.469Z,4.42
2019-05-25T21:25:08.494Z,5.47
2019-05-25T21:27:37.216Z,8.33
2019-05-25T21:30:06.604Z,6.37
2019-05-25T21:32:35.246Z,5.25
2019-05-25T21:35:04.610Z,5.65
2019-05-25T21:37:33.389Z,4.75
2019-05-25T21:40:02.743Z,5.33
2019-05-25T21:42:31.539Z,5.50
2019-05-25T21:45:00.159Z,5.10
2019-05-25T21:47:28.908Z,5.22
2019-05-25T21:49:57.554Z,5.87
2019-05-25T21:52:26.243Z,6.30
2019-05-25T21:54:54.924Z,6.08
2019-05-25T21:57:23.648Z,5.83
2019-05-25T21:59:52.426Z,7.67
2019-05-25T22:02:21.271Z,5.15
2019-05-25T22:04:49.918Z,7.12
2019-05-25T22:07:18.670Z,8.20
2019-05-25T22:09:47.411Z,7.72
2019-05-25T22:12:16.130Z,5.55
2019-05-25T22:14:44.823Z,5.00
2019-05-25T22:17:13.497Z,5.72
2019-05-25T22:19:42.217Z,6.17
2019-05-25T22:22:11.158Z,7.42
2019-05-25T22:24:39.881Z,5.40
2019-05-25T22:27:08.551Z,6.78
2019-05-25T22:29:37.266Z,8.35
2019-05-25T22:32:06.181Z,6.22
2019-05-25T22:34:34.829Z,5.80
2019-05-25T22:37:03.645Z,5.75
2019-05-25T22:39:32.514Z,6.92
2019-05-25T22:42:01.247Z,19.15
2019-05-25T22:44:30.146Z,23.60
2019-05-25T22:46:58.877Z,23.80
2019-05-25T22:49:27.545Z,27.95
2019-05-25T22:51:56.305Z,21.65
2019-05-25T22:54:25.086Z,20.08
2019-05-25T22:56:53.735Z,20.48
2019-05-25T22:59:22.399Z,22.93
2019-05-25T23:01:51.182Z,9.43
2019-05-25T23:04:19.902Z,8.68
2019-05-25T23:06:57.896Z,7.47
2019-05-25T23:09:19.156Z,7.50
2019-05-25T23:11:47.880Z,8.15
2019-05-25T23:14:16.525Z,8.53
2019-05-25T23:16:45.229Z,8.78
2019-05-25T23:19:13.956Z,9.65
2019-05-25T23:21:42.542Z,9.95
2019-05-25T23:24:11.234Z,9.68
2019-05-25T23:26:40.167Z,8.48
2019-05-25T23:29:08.869Z,7.97
2019-05-25T23:31:37.569Z,8.28
2019-05-25T23:34:06.231Z,7.67
2019-05-25T23:36:34.999Z,6.70
2019-05-25T23:39:04.732Z,7.20
2019-05-25T23:41:33.368Z,6.22
2019-05-25T23:44:02.024Z,6.62
2019-05-25T23:46:30.790Z,7.17
2019-05-25T23:48:59.459Z,5.75
2019-05-25T23:51:28.184Z,6.37
2019-05-25T23:53:56.878Z,5.45
2019-05-25T23:56:25.525Z,5.37
2019-05-25T23:58:54.164Z,7.90
